Time;durP1;ratioP1;P1;durP2;ratioP2;P2;SDS_P1;SDS_P2;PMS_P1;PMS_P2;Temp;Humidity;BMP_temperature;BMP_pressure;BME280_temperature;BME280_humidity;BME280_pressure;Samples;Min_cycle;Max_cycle;Signal;HPM_P1;HPM_P2
2022/09/13 00:02:43;;;;;;;13.00;7.78;;;;;;;15.04;99.31;100070.19;2830468;83;21062;-59
2022/09/13 00:06:44;;;;;;;7.72;6.97;;;;;;;14.85;100.00;100066.75;2828156;84;21010;-58
2022/09/13 00:10:47;;;;;;;12.30;8.95;;;;;;;14.64;100.00;100064.89;2843423;82;20939;-58
2022/09/13 00:14:48;;;;;;;12.15;8.38;;;;;;;14.43;100.00;100059.41;2846345;83;21065;-58
2022/09/13 00:18:51;;;;;;;13.22;8.80;;;;;;;14.24;100.00;100056.44;2839633;83;21109;-58
2022/09/13 00:22:53;;;;;;;12.30;9.08;;;;;;;14.08;100.00;100059.84;2811640;83;21034;-60
2022/09/13 00:26:54;;;;;;;10.32;8.58;;;;;;;14.10;100.00;100065.35;2833397;83;20975;-61
2022/09/13 00:31:02;;;;;;;13.95;8.50;;;;;;;14.13;100.00;100070.91;2839559;83;20944;-60
2022/09/13 00:35:10;;;;;;;14.90;7.85;;;;;;;14.16;100.00;100061.73;2867560;82;21025;-57
2022/09/13 00:39:12;;;;;;;8.88;7.25;;;;;;;14.21;100.00;100062.11;2844112;82;21031;-60
2022/09/13 00:43:20;;;;;;;11.22;7.25;;;;;;;14.24;100.00;100050.58;2886623;82;20939;-59
2022/09/13 00:47:27;;;;;;;8.38;7.60;;;;;;;14.23;100.00;100048.90;2858798;82;20991;-58
2022/09/13 00:51:29;;;;;;;11.50;8.15;;;;;;;14.10;100.00;100042.62;2821918;82;21041;-58
2022/09/13 00:55:42;;;;;;;10.58;7.92;;;;;;;14.14;100.00;100043.98;2871901;82;21014;-60
2022/09/13 00:59:49;;;;;;;25.20;6.80;;;;;;;14.17;100.00;100038.83;2829405;83;20987;-59
2022/09/13 01:03:50;;;;;;;8.33;7.35;;;;;;;14.12;100.00;100037.95;2822634;83;21082;-58
2022/09/13 01:07:52;;;;;;;9.05;6.67;;;;;;;14.09;100.00;100033.43;2812465;83;21011;-60
2022/09/13 01:12:07;;;;;;;13.43;8.68;;;;;;;13.93;100.00;100029.62;2824525;82;21015;-58
2022/09/13 01:16:08;;;;;;;9.38;7.80;;;;;;;13.75;100.00;100028.27;2859384;82;20995;-58
2022/09/13 01:20:13;;;;;;;8.20;7.40;;;;;;;13.67;100.00;100017.52;2818137;84;21011;-59
2022/09/13 01:24:44;;;;;;;8.60;7.58;;;;;;;13.67;100.00;100014.36;2824509;84;21008;-59
2022/09/13 01:28:59;;;;;;;8.68;7.72;;;;;;;13.54;100.00;100012.05;2830240;84;21046;-59
2022/09/13 01:33:16;;;;;;;11.12;8.40;;;;;;;13.42;100.00;100007.91;2826851;84;21054;-58
2022/09/13 01:37:38;;;;;;;7.58;6.33;;;;;;;13.32;100.00;100007.11;2777086;84;20995;-60
2022/09/13 01:42:00;;;;;;;9.43;7.03;;;;;;;13.19;100.00;100001.66;2829747;84;21014;-58
2022/09/13 01:46:15;;;;;;;10.28;7.58;;;;;;;13.17;100.00;99997.44;2829459;83;21011;-60
2022/09/13 01:50:42;;;;;;;10.32;7.67;;;;;;;13.20;100.00;99993.13;2835628;79;21014;-61
2022/09/13 01:54:56;;;;;;;;;;;;;;;13.08;100.00;99989.83;2806837;84;21010;-58
2022/09/13 01:59:15;;;;;;;9.98;8.05;;;;;;;13.03;100.00;99976.09;2824069;82;20121;-59
2022/09/13 02:03:21;;;;;;;14.47;8.55;;;;;;;13.01;100.00;99972.23;2870962;82;21014;-59
2022/09/13 02:07:29;;;;;;;8.73;7.08;;;;;;;13.02;100.00;99960.56;2853060;83;21110;-56
2022/09/13 02:11:32;;;;;;;12.23;9.80;;;;;;;13.06;100.00;99961.93;2817996;84;20976;-57
2022/09/13 02:15:44;;;;;;;21.37;8.00;;;;;;;13.09;100.00;99960.33;2794903;84;21039;-57
2022/09/13 02:20:05;;;;;;;13.83;9.83;;;;;;;13.22;100.00;99953.76;2796154;84;21023;-57
2022/09/13 02:24:11;;;;;;;9.00;8.03;;;;;;;13.39;100.00;99946.77;2835679;82;20999;-59
2022/09/13 02:28:17;;;;;;;15.18;8.38;;;;;;;13.45;100.00;99942.64;2868474;81;21031;-57
2022/09/13 02:32:47;;;;;;;9.83;8.33;;;;;;;13.43;100.00;99935.62;2843879;80;21006;-58
2022/09/13 02:36:52;;;;;;;10.95;7.72;;;;;;;13.19;100.00;99932.22;2731480;84;21041;-57
2022/09/13 02:41:26;;;;;;;10.32;8.78;;;;;;;12.99;100.00;99926.16;2736132;86;21059;-57
2022/09/13 02:45:33;;;;;;;16.60;7.72;;;;;;;12.81;100.00;99920.29;2673824;88;21045;-57
2022/09/13 02:50:00;;;;;;;9.85;7.75;;;;;;;12.67;100.00;99908.77;2695574;84;21097;-60
2022/09/13 02:54:26;;;;;;;13.40;7.85;;;;;;;12.53;100.00;99911.45;2697132;84;21106;-58
2022/09/13 02:58:52;;;;;;;11.25;8.63;;;;;;;12.52;100.00;99906.62;2682552;88;21030;-59
2022/09/13 03:02:57;;;;;;;11.35;8.83;;;;;;;12.56;100.00;99900.47;2699119;85;21052;-57
2022/09/13 03:06:59;;;;;;;9.65;8.70;;;;;;;12.56;100.00;99895.14;2718241;83;21058;-57
2022/09/13 03:11:35;;;;;;;10.43;8.65;;;;;;;12.50;100.00;99892.59;2744433;87;21058;-57
2022/09/13 03:15:50;;;;;;;9.98;8.75;;;;;;;12.49;100.00;99886.91;2638969;88;21067;-56
2022/09/13 03:20:22;;;;;;;13.48;9.48;;;;;;;12.48;100.00;99879.05;2681678;87;21046;-58
2022/09/13 03:24:56;;;;;;;9.63;8.70;;;;;;;12.46;100.00;99877.02;2650768;86;21010;-58
2022/09/13 03:29:36;;;;;;;13.10;9.10;;;;;;;12.49;100.00;99869.58;2682317;87;20987;-60
2022/09/13 03:33:58;;;;;;;13.72;10.75;;;;;;;12.53;100.00;99866.09;2578043;91;21056;-57
2022/09/13 03:38:12;;;;;;;16.45;8.75;;;;;;;12.56;100.00;99869.80;2612686;89;21042;-58
2022/09/13 03:42:36;;;;;;;13.28;9.53;;;;;;;12.59;100.00;99870.00;2597724;90;21067;-57
2022/09/13 03:46:55;;;;;;;11.65;9.48;;;;;;;12.58;100.00;99861.17;2575778;92;21059;-61
2022/09/13 03:50:57;;;;;;;13.48;10.03;;;;;;;12.59;100.00;99857.99;2609915;85;21065;-58
2022/09/13 03:54:59;;;;;;;15.70;8.73;;;;;;;12.67;100.00;99857.59;2694481;87;21126;-58
2022/09/13 03:59:00;;;;;;;11.97;9.58;;;;;;;12.75;100.00;99859.52;2715051;87;21010;-58
2022/09/13 04:03:01;;;;;;;14.07;9.48;;;;;;;12.86;100.00;99858.45;2748374;84;21058;-58
2022/09/13 04:07:03;;;;;;;11.25;9.78;;;;;;;12.90;100.00;99853.15;2765259;85;21047;-58
2022/09/13 04:11:05;;;;;;;14.18;8.80;;;;;;;12.98;100.00;99855.92;2713314;86;21063;-59
2022/09/13 04:15:08;;;;;;;12.33;9.13;;;;;;;13.06;100.00;99852.45;2829802;84;20999;-58
2022/09/13 04:19:10;;;;;;;12.18;9.05;;;;;;;13.03;100.00;99854.10;2825854;83;21245;-57
2022/09/13 04:23:11;;;;;;;13.83;9.38;;;;;;;13.09;100.00;99851.33;2804838;82;21022;-58
2022/09/13 04:27:12;;;;;;;11.03;9.63;;;;;;;13.18;100.00;99846.90;2838567;82;21046;-58
2022/09/13 04:31:13;;;;;;;11.30;9.30;;;;;;;13.23;100.00;99846.78;2853036;83;21003;-57
2022/09/13 04:35:16;;;;;;;11.95;8.55;;;;;;;13.32;100.00;99850.36;2796135;84;21015;-58
2022/09/13 04:39:19;;;;;;;10.95;8.15;;;;;;;13.52;100.00;99859.05;2860033;82;20976;-59
2022/09/13 04:43:22;;;;;;;14.60;8.50;;;;;;;13.67;100.00;99857.16;2823901;84;21027;-57
2022/09/13 04:47:36;;;;;;;10.98;7.35;;;;;;;13.68;100.00;99849.48;2856970;79;21030;-57
2022/09/13 04:51:37;;;;;;;10.75;7.45;;;;;;;13.64;100.00;99853.47;2827707;82;21007;-60
2022/09/13 04:55:38;;;;;;;11.83;9.03;;;;;;;13.65;100.00;99846.61;2757618;84;21059;-57
2022/09/13 04:59:57;;;;;;;11.83;8.15;;;;;;;13.75;100.00;99841.67;2830123;83;21188;-57
2022/09/13 05:03:58;;;;;;;12.07;9.25;;;;;;;13.95;100.00;99835.11;2852712;80;21023;-59
2022/09/13 05:08:00;;;;;;;11.12;7.58;;;;;;;14.27;100.00;99831.41;2853980;83;21100;-57
2022/09/13 05:12:02;;;;;;;12.25;9.65;;;;;;;14.50;100.00;99832.15;2860492;82;22305;-56
2022/09/13 05:16:06;;;;;;;13.58;7.33;;;;;;;14.78;100.00;99830.08;2877495;82;21539;-59
2022/09/13 05:20:09;;;;;;;8.88;7.70;;;;;;;14.94;100.00;99832.45;2852911;83;21058;-60
2022/09/13 05:24:11;;;;;;;14.35;9.08;;;;;;;15.09;100.00;99831.28;2855646;83;20963;-57
2022/09/13 05:28:12;;;;;;;11.83;7.75;;;;;;;15.32;100.00;99825.25;2854382;82;21373;-58
2022/09/13 05:32:14;;;;;;;13.65;8.33;;;;;;;15.42;100.00;99823.25;2835288;82;21013;-57
2022/09/13 05:36:15;;;;;;;7.72;6.85;;;;;;;15.21;100.00;99814.38;2875450;82;20943;-60
2022/09/13 05:40:18;;;;;;;7.90;5.70;;;;;;;15.13;100.00;99808.52;2779526;83;20986;-58
2022/09/13 05:44:20;;;;;;;8.58;7.67;;;;;;;15.22;100.00;99810.20;2855127;80;21030;-57
2022/09/13 05:48:22;;;;;;;9.93;8.20;;;;;;;15.31;100.00;99811.52;2855599;83;21062;-59
2022/09/13 05:52:23;;;;;;;9.60;6.92;;;;;;;15.28;100.00;99810.86;2855405;79;21038;-58
2022/09/13 05:56:28;;;;;;;11.20;7.95;;;;;;;15.53;100.00;99800.63;2821680;83;21009;-59
2022/09/13 06:00:31;;;;;;;7.30;6.67;;;;;;;16.12;100.00;99783.38;2848007;80;21098;-58
2022/09/13 06:04:34;;;;;;;13.72;7.53;;;;;;;16.12;100.00;99783.38;2824956;83;21506;-57
2022/09/13 06:08:36;;;;;;;160.12;88.78;;;;;;;16.24;100.00;99779.80;2808389;84;20996;-59
2022/09/13 06:12:38;;;;;;;138.43;64.58;;;;;;;16.46;100.00;99774.65;2824672;83;21015;-59
2022/09/13 06:16:39;;;;;;;106.07;48.38;;;;;;;16.73;100.00;99771.95;2822447;83;21000;-58
2022/09/13 06:20:51;;;;;;;60.43;28.27;;;;;;;17.05;100.00;99770.07;2822712;83;20992;-57
2022/09/13 06:24:52;;;;;;;66.55;23.50;;;;;;;17.48;98.42;99759.25;2828148;84;21038;-58
2022/09/13 06:28:56;;;;;;;19.07;13.03;;;;;;;17.94;99.43;99760.93;2797474;84;21015;-58
2022/09/13 06:32:59;;;;;;;13.18;8.08;;;;;;;18.38;99.72;99761.91;2825630;83;21030;-58
2022/09/13 06:37:00;;;;;;;9.55;6.87;;;;;;;18.89;99.05;99761.47;2777240;84;21038;-60
2022/09/13 06:41:10;;;;;;;5.80;5.15;;;;;;;19.36;96.33;99767.27;2823084;81;20932;-58
2022/09/13 06:45:11;;;;;;;5.40;4.87;;;;;;;19.70;87.95;99749.45;2825776;84;21011;-58
2022/09/13 06:49:20;;;;;;;7.83;5.75;;;;;;;19.95;90.09;99757.91;2804721;84;20991;-56
2022/09/13 06:53:21;;;;;;;6.53;5.08;;;;;;;20.06;87.36;99747.05;2803018;84;21026;-59
2022/09/13 06:57:22;;;;;;;5.87;4.37;;;;;;;20.01;86.45;99742.75;2811917;83;21047;-57
2022/09/13 07:01:28;;;;;;;5.22;4.67;;;;;;;20.06;87.45;99738.11;2814178;83;21031;-57
2022/09/13 07:05:29;;;;;;;5.70;4.12;;;;;;;20.05;86.64;99733.24;2818966;84;21016;-58
2022/09/13 07:09:31;;;;;;;5.45;4.33;;;;;;;20.05;85.78;99735.95;2826246;83;20997;-59
2022/09/13 07:13:33;;;;;;;4.60;4.12;;;;;;;20.31;86.03;99737.06;2799966;84;21032;-58
2022/09/13 07:17:34;;;;;;;4.97;4.47;;;;;;;20.56;85.66;99732.43;2781224;81;21054;-56
2022/09/13 07:21:36;;;;;;;4.92;4.40;;;;;;;20.68;83.26;99735.36;2829946;81;21038;-60
2022/09/13 07:25:38;;;;;;;5.45;4.47;;;;;;;20.80;81.35;99736.95;2781450;84;20991;-57
2022/09/13 07:29:39;;;;;;;4.83;4.33;;;;;;;20.98;80.78;99735.00;2731964;84;21046;-57
2022/09/13 07:33:43;;;;;;;5.33;3.92;;;;;;;21.17;80.41;99730.61;2785687;82;21052;-59
2022/09/13 07:37:45;;;;;;;4.75;4.33;;;;;;;21.28;78.88;99722.38;2858102;82;21058;-58
2022/09/13 07:41:47;;;;;;;5.05;3.60;;;;;;;21.45;79.85;99721.94;2822362;84;20948;-58
2022/09/13 07:46:06;;;;;;;5.08;3.65;;;;;;;21.48;75.86;99717.45;2773506;85;21044;-57
2022/09/13 07:50:09;;;;;;;6.70;4.62;;;;;;;21.52;77.69;99720.89;2820096;84;21521;-56
2022/09/13 07:54:14;;;;;;;6.80;4.60;;;;;;;21.72;78.76;99724.63;2839978;82;21294;-57
2022/09/13 07:58:16;;;;;;;3.75;3.45;;;;;;;22.03;78.64;99732.00;2822049;84;20976;-58
2022/09/13 08:02:23;;;;;;;5.22;4.03;;;;;;;22.06;76.37;99717.17;2797261;84;21074;-58
2022/09/13 08:06:28;;;;;;;4.12;3.72;;;;;;;22.00;76.98;99720.76;2841071;82;21019;-59
2022/09/13 08:10:29;;;;;;;4.53;4.13;;;;;;;22.00;77.07;99721.57;2863363;82;20991;-58
2022/09/13 08:14:31;;;;;;;22.58;3.42;;;;;;;22.17;78.47;99721.08;2855443;80;21739;-58
2022/09/13 08:18:46;;;;;;;3.50;3.20;;;;;;;22.27;77.30;99721.45;2829762;83;21038;-57
2022/09/13 08:22:49;;;;;;;3.87;3.10;;;;;;;22.47;79.46;99722.70;2822736;82;21038;-57
2022/09/13 08:26:53;;;;;;;7.62;4.30;;;;;;;22.66;76.69;99715.51;2802955;84;20979;-57
2022/09/13 08:31:15;;;;;;;4.62;3.37;;;;;;;22.97;78.03;99723.81;2846072;83;21043;-59
2022/09/13 08:35:17;;;;;;;4.45;3.35;;;;;;;23.02;73.48;99707.70;2829649;84;21019;-58
2022/09/13 08:39:18;;;;;;;3.70;3.30;;;;;;;23.20;75.64;99704.73;2829730;82;21018;-56
2022/09/13 08:44:02;;;;;;;3.50;3.20;;;;;;;23.36;77.37;99692.48;2834390;82;21003;-56
2022/09/13 08:48:09;;;;;;;3.47;2.72;;;;;;;23.62;75.37;99681.86;2771025;84;21065;-56
2022/09/13 08:53:03;;;;;;;4.33;3.72;;;;;;;23.87;77.57;99684.99;2752235;84;21053;-58
2022/09/13 08:57:33;;;;;;;3.08;2.87;;;;;;;24.00;77.61;99684.53;2757892;86;21092;-56
2022/09/13 09:01:55;;;;;;;2.65;2.45;;;;;;;24.16;77.98;99687.16;2765267;85;21010;-56
2022/09/13 09:06:00;;;;;;;4.08;3.15;;;;;;;24.29;74.83;99688.34;2775339;84;21280;-57
2022/09/13 09:10:18;;;;;;;5.25;3.35;;;;;;;24.41;74.78;99682.93;2794272;85;21009;-57
2022/09/13 09:14:35;;;;;;;3.25;2.55;;;;;;;24.41;73.68;99680.77;2798371;85;21021;-57
2022/09/13 09:18:42;;;;;;;4.97;3.27;;;;;;;24.23;70.82;99683.84;2779648;83;21054;-57
2022/09/13 09:22:44;;;;;;;3.00;2.70;;;;;;;24.14;72.35;99673.82;2796764;82;21002;-59
2022/09/13 09:26:58;;;;;;;3.70;3.33;;;;;;;24.04;74.66;99671.66;2854146;80;21110;-57
2022/09/13 09:31:21;;;;;;;3.92;3.25;;;;;;;23.88;73.49;99662.24;2904121;82;20978;-57
2022/09/13 09:35:48;;;;;;;5.90;3.40;;;;;;;23.74;76.64;99658.84;2855465;83;20998;-56
2022/09/13 09:39:51;;;;;;;5.03;3.12;;;;;;;23.62;77.63;99659.33;2853261;80;21014;-56
2022/09/13 09:44:21;;;;;;;3.25;2.95;;;;;;;23.47;76.10;99649.68;2844127;83;21006;-59
2022/09/13 09:48:28;;;;;;;3.20;2.67;;;;;;;23.45;79.09;99645.02;2855486;80;21021;-56
2022/09/13 09:52:44;;;;;;;4.80;2.25;;;;;;;23.44;79.43;99640.64;2854589;83;20995;-57
2022/09/13 09:56:54;;;;;;;2.70;2.50;;;;;;;23.39;78.79;99635.08;2851796;83;21062;-56
2022/09/13 10:00:58;;;;;;;2.40;2.20;;;;;;;23.32;76.84;99628.88;2854904;83;20991;-57
2022/09/13 10:05:02;;;;;;;2.95;2.75;;;;;;;23.17;77.22;99636.00;2855768;80;21061;-56
2022/09/13 10:09:20;;;;;;;3.60;3.30;;;;;;;23.14;79.20;99624.25;2855949;83;20978;-56
2022/09/13 10:13:23;;;;;;;3.98;3.47;;;;;;;22.99;80.47;99624.59;2855984;82;21077;-57
2022/09/13 10:17:27;;;;;;;3.95;3.37;;;;;;;22.91;82.36;99625.20;2859019;82;20978;-56
2022/09/13 10:21:30;;;;;;;2.40;2.20;;;;;;;22.83;84.04;99614.11;2855588;82;21046;-56
2022/09/13 10:25:36;;;;;;;3.50;3.20;;;;;;;22.88;86.27;99615.31;2855299;83;21045;-57
2022/09/13 10:29:38;;;;;;;4.90;3.98;;;;;;;22.95;86.66;99618.27;2855945;83;20994;-57
2022/09/13 10:33:59;;;;;;;6.20;3.75;;;;;;;23.04;87.77;99618.00;2855759;82;20982;-57
2022/09/13 10:38:00;;;;;;;4.22;3.58;;;;;;;23.14;86.39;99616.93;2855997;83;21002;-57
2022/09/13 10:42:09;;;;;;;3.52;2.87;;;;;;;23.24;86.07;99624.55;2854732;83;21042;-56
2022/09/13 10:46:14;;;;;;;5.42;4.03;;;;;;;23.38;85.58;99616.59;2896245;80;21006;-59
2022/09/13 10:50:26;;;;;;;3.12;2.83;;;;;;;23.49;85.35;99617.72;2879135;82;21021;-57
2022/09/13 10:54:28;;;;;;;4.72;3.90;;;;;;;23.58;83.92;99613.31;2855891;82;21065;-57
2022/09/13 10:58:33;;;;;;;3.58;3.22;;;;;;;23.58;84.29;99613.31;2838156;81;20975;-59
2022/09/13 11:03:23;;;;;;;6.67;3.83;;;;;;;23.60;84.41;99615.30;2795527;83;21069;-60
2022/09/13 11:07:50;;;;;;;5.62;4.55;;;;;;;23.68;84.66;99609.03;2816025;82;21031;-57
2022/09/13 11:11:58;;;;;;;6.28;4.03;;;;;;;23.68;78.18;99606.83;2883202;82;21007;-56
2022/09/13 11:16:23;;;;;;;10.32;3.65;;;;;;;23.80;79.06;99595.50;2850947;82;21008;-57
2022/09/13 11:20:39;;;;;;;4.77;4.37;;;;;;;23.76;74.71;99595.64;2830461;82;21027;-57
2022/09/13 11:25:01;;;;;;;5.33;4.47;;;;;;;23.64;75.49;99590.70;2830798;84;21015;-57
2022/09/13 11:33:58;;;;;;;4.60;3.33;;;;;;;23.61;75.90;99578.95;2861867;80;21049;-57
2022/09/13 11:38:24;;;;;;;6.05;5.10;;;;;;;23.57;75.75;99569.08;2853964;82;21035;-58
2022/09/13 11:43:13;;;;;;;5.37;4.08;;;;;;;23.54;73.69;99565.47;2873032;82;20955;-60
2022/09/13 11:48:07;;;;;;;7.33;5.62;;;;;;;23.16;75.97;99565.99;2843794;83;20939;-58
2022/09/13 11:52:23;;;;;;;5.00;4.30;;;;;;;23.28;78.88;99555.23;2746804;83;70030;-96
2022/09/13 11:56:38;;;;;;;5.25;4.55;;;;;;;23.42;75.02;99550.49;2661680;88;21175;-96
2022/09/13 12:00:48;;;;;;;6.40;4.67;;;;;;;23.42;74.21;99546.42;2731136;87;21115;-96
2022/09/13 12:05:08;;;;;;;7.47;5.42;;;;;;;23.32;71.75;99541.54;2636461;87;21119;-96
2022/09/13 12:09:23;;;;;;;5.12;4.40;;;;;;;23.57;75.38;99535.66;2663314;88;21583;-93
2022/09/13 12:13:30;;;;;;;;;;;;;;;23.70;72.15;99524.62;2662477;87;21115;-96
2022/09/13 12:17:39;;;;;;;6.78;4.55;;;;;;;23.99;76.38;99523.98;2608881;90;20501;-95
2022/09/13 12:21:43;;;;;;;4.78;3.45;;;;;;;24.19;72.87;99518.28;2629051;88;21094;-96
2022/09/13 12:26:25;;;;;;;5.33;3.40;;;;;;;24.38;70.45;99508.95;2667669;87;21055;-94
2022/09/13 12:30:41;;;;;;;3.75;3.27;;;;;;;24.49;69.33;99517.33;2659421;87;21041;-96
2022/09/13 12:34:48;;;;;;;7.70;4.35;;;;;;;24.63;71.89;99509.23;2664634;87;21114;-94
2022/09/13 12:39:22;;;;;;;5.30;3.58;;;;;;;24.62;70.64;99505.37;2687112;87;21091;-95
2022/09/13 12:43:50;;;;;;;5.08;3.92;;;;;;;24.73;71.89;99504.55;2692808;87;21055;-92
2022/09/13 12:48:18;;;;;;;5.90;3.50;;;;;;;24.76;71.37;99500.53;2693278;87;21159;-95
2022/09/13 12:52:42;;;;;;;5.42;3.62;;;;;;;24.56;68.30;99490.02;2676049;87;20984;-94
2022/09/13 13:01:17;;;;;;;5.00;3.58;;;;;;;24.56;72.36;99494.91;2733064;85;21095;-58
2022/09/13 13:05:45;;;;;;;3.53;3.03;;;;;;;24.53;72.98;99489.95;2704699;84;21044;-60
2022/09/13 13:09:55;;;;;;;6.10;4.50;;;;;;;24.49;70.88;99490.14;2729216;86;21020;-58
2022/09/13 13:14:08;;;;;;;3.77;2.98;;;;;;;24.43;68.90;99482.40;2693605;85;20990;-59
2022/09/13 13:18:33;;;;;;;4.22;3.83;;;;;;;24.48;71.91;99483.05;2733983;85;21055;-60
2022/09/13 13:22:47;;;;;;;3.72;3.17;;;;;;;24.50;71.37;99480.92;2779909;84;21078;-58
2022/09/13 13:26:56;;;;;;;13.08;3.50;;;;;;;24.52;72.53;99474.71;2775659;85;21040;-68
2022/09/13 13:30:58;;;;;;;2.85;2.60;;;;;;;24.52;71.94;99467.40;2782255;82;20990;-68
2022/09/13 13:35:06;;;;;;;3.42;2.90;;;;;;;24.56;73.07;99458.77;2782633;85;21010;-69
2022/09/13 13:39:53;;;;;;;2.98;2.65;;;;;;;24.54;73.57;99457.63;2773506;82;21489;-70
2022/09/13 13:43:55;;;;;;;5.03;3.75;;;;;;;24.59;74.25;99444.17;2737035;84;21011;-70
2022/09/13 13:48:14;;;;;;;8.98;3.52;;;;;;;24.71;72.66;99426.98;2766278;85;21028;-69
2022/09/13 13:52:21;;;;;;;3.98;3.52;;;;;;;24.77;72.07;99423.36;2759106;84;21023;-71
2022/09/13 13:56:48;;;;;;;4.67;3.25;;;;;;;24.82;72.33;99419.38;2783379;84;21024;-71
2022/09/13 14:00:57;;;;;;;8.18;3.72;;;;;;;24.86;72.43;99425.12;2752136;84;21046;-69
2022/09/13 14:05:05;;;;;;;3.92;3.52;;;;;;;24.91;74.06;99420.63;2813645;80;21013;-69
2022/09/13 14:13:51;;;;;;;3.70;3.40;;;;;;;24.95;71.36;99419.06;2771504;82;21120;-91
2022/09/13 14:18:28;;;;;;;5.15;3.60;;;;;;;24.93;71.44;99415.77;2764346;83;21098;-90
2022/09/13 14:22:30;;;;;;;4.03;2.62;;;;;;;24.86;70.82;99412.38;2746777;84;21063;-94
2022/09/13 14:26:31;;;;;;;5.58;4.10;;;;;;;24.86;72.81;99412.38;2729324;85;21074;-94
2022/09/13 14:30:38;;;;;;;7.65;4.15;;;;;;;24.76;73.68;99411.64;2729001;84;21059;-92
2022/09/13 14:34:43;;;;;;;4.10;3.70;;;;;;;24.64;75.98;99409.45;2747301;84;21082;-94
2022/09/13 14:38:51;;;;;;;8.65;4.10;;;;;;;24.51;76.67;99407.31;2748703;84;21160;-95
2022/09/13 14:42:55;;;;;;;4.17;3.77;;;;;;;24.34;76.61;99409.91;2724822;84;21102;-95
2022/09/13 14:47:24;;;;;;;9.60;4.58;;;;;;;24.19;77.13;99402.27;2754439;84;21051;-94
2022/09/13 14:51:30;;;;;;;4.30;3.87;;;;;;;24.16;77.19;99394.59;2740876;84;21082;-94
2022/09/13 14:55:36;;;;;;;6.08;3.47;;;;;;;24.04;78.91;99393.77;2749055;84;21087;-95
2022/09/13 14:59:46;;;;;;;4.42;3.37;;;;;;;24.00;79.73;99387.97;2750692;84;21043;-91
2022/09/13 15:03:50;;;;;;;3.90;3.50;;;;;;;24.04;80.92;99381.02;2748230;85;21052;-93
2022/09/13 15:07:51;;;;;;;4.12;3.75;;;;;;;24.04;82.45;99386.45;2738128;85;21033;-93
2022/09/13 15:12:04;;;;;;;7.72;3.45;;;;;;;24.03;82.52;99383.45;2757847;81;21058;-92
2022/09/13 15:16:26;;;;;;;5.70;3.65;;;;;;;23.98;81.53;99383.83;2743741;84;21086;-95
2022/09/13 15:20:51;;;;;;;6.28;4.87;;;;;;;24.01;81.78;99390.14;2738206;83;21089;-90
2022/09/13 15:24:59;;;;;;;3.80;3.25;;;;;;;24.02;80.89;99395.38;2724001;85;21090;-96
2022/09/13 15:29:02;;;;;;;4.80;3.65;;;;;;;23.94;80.89;99384.82;2743443;83;21058;-94
2022/09/13 15:33:16;;;;;;;4.20;3.80;;;;;;;23.87;82.54;99386.84;2625938;86;21093;-91
2022/09/13 15:37:23;;;;;;;4.37;3.22;;;;;;;23.80;83.79;99382.36;2749694;84;21097;-95
2022/09/13 15:41:32;;;;;;;5.37;3.72;;;;;;;23.78;84.21;99377.70;2728822;84;21668;-91
2022/09/13 15:45:33;;;;;;;3.87;3.40;;;;;;;23.90;84.90;99367.35;2705352;84;21038;-96
2022/09/13 15:49:39;;;;;;;3.58;3.20;;;;;;;24.05;82.17;99368.25;2755153;83;21084;-92
2022/09/13 15:53:44;;;;;;;3.47;2.83;;;;;;;24.10;81.24;99359.69;2715349;84;21007;-96
2022/09/13 15:57:45;;;;;;;5.37;3.77;;;;;;;24.14;79.41;99355.13;2764446;84;21054;-95
2022/09/13 16:01:49;;;;;;;4.30;3.30;;;;;;;24.17;79.84;99364.16;2763676;84;21086;-93
2022/09/13 16:05:52;;;;;;;5.72;3.65;;;;;;;24.24;79.20;99358.09;2775499;84;21343;-96
2022/09/13 16:09:54;;;;;;;3.25;2.95;;;;;;;24.33;77.47;99360.71;2753425;84;21042;-95
2022/09/13 16:13:55;;;;;;;5.25;3.42;;;;;;;24.36;76.69;99362.95;2768022;84;21567;-92
2022/09/13 16:17:57;;;;;;;10.75;3.40;;;;;;;24.31;75.16;99353.34;2784433;83;21007;-92
2022/09/13 16:21:58;;;;;;;4.08;2.27;;;;;;;24.22;74.04;99350.71;2781754;83;21046;-95
2022/09/13 16:26:00;;;;;;;4.40;3.22;;;;;;;24.09;75.61;99345.01;2775070;84;21117;-88
2022/09/13 16:30:01;;;;;;;3.85;2.35;;;;;;;24.00;75.61;99352.66;2778370;84;21045;-96
2022/09/13 16:34:03;;;;;;;4.42;3.02;;;;;;;23.88;76.07;99351.83;2753875;85;21110;-94
2022/09/13 16:38:05;;;;;;;4.37;3.25;;;;;;;23.79;76.45;99355.43;2774268;84;21050;-94
2022/09/13 16:42:07;;;;;;;2.87;2.60;;;;;;;23.68;76.65;99357.08;2775498;84;21545;-95
2022/09/13 16:46:12;;;;;;;10.93;3.47;;;;;;;23.53;77.47;99361.63;2775004;84;21473;-91
2022/09/13 16:50:14;;;;;;;5.83;3.20;;;;;;;23.34;78.34;99360.86;2743548;84;21094;-95
2022/09/13 16:54:16;;;;;;;3.02;2.42;;;;;;;23.21;78.25;99370.84;2769059;85;21007;-93
2022/09/13 16:58:17;;;;;;;7.28;3.40;;;;;;;23.08;78.59;99368.33;2731243;85;21109;-95
2022/09/13 17:02:20;;;;;;;3.10;2.62;;;;;;;22.99;78.96;99366.47;2759297;85;21054;-95
2022/09/13 17:06:24;;;;;;;5.00;3.10;;;;;;;22.94;79.54;99373.12;2772584;84;21087;-93
2022/09/13 17:10:25;;;;;;;3.95;2.72;;;;;;;22.86;79.55;99364.77;2764756;84;21006;-93
2022/09/13 17:14:27;;;;;;;6.33;3.15;;;;;;;22.75;80.07;99365.53;2763713;83;21066;-91
2022/09/13 17:18:29;;;;;;;3.27;2.70;;;;;;;22.72;80.93;99365.48;2735147;84;21041;-90
2022/09/13 17:22:31;;;;;;;2.42;2.22;;;;;;;22.70;81.57;99357.27;2778324;84;21051;-93
2022/09/13 17:26:32;;;;;;;5.15;3.72;;;;;;;22.60;81.66;99357.30;2767496;84;20976;-94
2022/09/13 17:30:34;;;;;;;4.55;3.90;;;;;;;22.58;82.24;99360.73;2770964;84;21015;-95
2022/09/13 17:34:36;;;;;;;2.77;2.58;;;;;;;22.48;83.47;99357.21;2747977;84;21941;-92
2022/09/13 17:38:39;;;;;;;5.30;4.08;;;;;;;22.42;83.66;99362.70;2716315;84;21508;-95
2022/09/13 17:42:41;;;;;;;10.18;4.45;;;;;;;22.40;83.85;99354.80;2765658;83;21065;-95
2022/09/13 17:46:43;;;;;;;4.83;3.50;;;;;;;22.38;83.48;99364.48;2730403;84;21711;-94
2022/09/13 17:50:45;;;;;;;4.97;4.47;;;;;;;22.36;83.41;99365.25;2771487;83;21062;-90
2022/09/13 17:54:49;;;;;;;7.05;4.37;;;;;;;22.31;83.05;99360.23;2887613;80;21058;-93
2022/09/13 17:58:51;;;;;;;4.30;3.87;;;;;;;22.25;83.56;99357.34;2877519;80;21026;-96
2022/09/13 18:02:53;;;;;;;5.60;4.15;;;;;;;22.20;83.87;99357.20;2885950;80;21037;-92
2022/09/13 18:06:55;;;;;;;6.00;5.03;;;;;;;22.11;84.23;99361.27;2880054;80;21518;-87
2022/09/13 18:11:09;;;;;;;6.03;3.58;;;;;;;21.90;84.43;99366.03;2868616;80;21038;-90
2022/09/13 18:15:11;;;;;;;9.28;5.25;;;;;;;21.62;83.81;99367.31;2844886;80;21071;-90
2022/09/13 18:19:13;;;;;;;14.43;10.82;;;;;;;21.35;83.95;99367.53;2844921;82;21354;-90
2022/09/13 18:23:14;;;;;;;6.20;5.53;;;;;;;21.18;84.91;99370.45;2861620;80;21030;-92
2022/09/13 18:27:16;;;;;;;5.67;5.10;;;;;;;21.00;85.47;99367.13;2824036;80;21019;-90
2022/09/13 18:31:18;;;;;;;6.45;5.15;;;;;;;20.84;87.57;99369.31;2843213;81;21046;-89
2022/09/13 18:35:19;;;;;;;6.53;4.72;;;;;;;20.72;88.68;99373.69;2838186;80;21038;-91
2022/09/13 18:39:22;;;;;;;6.92;5.30;;;;;;;20.62;89.96;99369.56;2849271;80;21033;-91
2022/09/13 18:43:24;;;;;;;6.22;4.83;;;;;;;20.56;90.92;99375.83;2874573;80;21038;-92
2022/09/13 18:47:26;;;;;;;3.67;3.37;;;;;;;20.53;91.62;99370.32;2824370;81;21540;-92
2022/09/13 18:51:34;;;;;;;5.10;4.60;;;;;;;20.48;92.67;99372.84;2850595;81;21053;-90
2022/09/13 18:55:35;;;;;;;6.58;4.08;;;;;;;20.51;92.65;99373.77;2868974;81;21117;-85
2022/09/13 18:59:37;;;;;;;5.12;4.15;;;;;;;20.56;92.80;99373.12;2844246;81;21058;-89
2022/09/13 19:03:41;;;;;;;4.67;3.77;;;;;;;20.60;92.66;99381.64;2899134;80;20995;-95
2022/09/13 19:07:43;;;;;;;4.78;4.28;;;;;;;20.57;93.14;99374.78;2920269;79;21018;-92
2022/09/13 19:11:47;;;;;;;8.95;5.05;;;;;;;20.53;93.10;99377.08;2878766;81;21592;-93
2022/09/13 19:15:48;;;;;;;7.22;4.17;;;;;;;20.50;92.72;99373.99;2888828;81;21573;-92
2022/09/13 19:19:49;;;;;;;5.17;3.60;;;;;;;20.48;92.40;99385.53;2904661;80;21026;-91
2022/09/13 19:23:51;;;;;;;6.87;3.90;;;;;;;20.44;91.90;99381.58;2884242;80;21545;-88
2022/09/13 19:27:53;;;;;;;4.60;4.20;;;;;;;20.42;91.26;99383.16;2894560;80;21038;-88
2022/09/13 19:31:54;;;;;;;6.50;5.12;;;;;;;20.33;91.78;99377.16;2873027;80;21037;-90
2022/09/13 19:36:06;;;;;;;6.45;5.22;;;;;;;20.22;91.71;99381.85;2877008;79;21015;-91